Time;durP1;ratioP1;P1;durP2;ratioP2;P2;SDS_P1;SDS_P2;PMS_P1;PMS_P2;Temp;Humidity;BMP_temperature;BMP_pressure;BME280_temperature;BME280_humidity;BME280_pressure;Samples;Min_cycle;Max_cycle;Signal;HPM_P1;HPM_P2
2021/03/12 00:00:57;;;;;;;0.47;0.20;;;5.00;99.90;;;;;;8358625;28;20405;-61
2021/03/12 00:04:58;;;;;;;0.60;0.20;;;5.00;99.90;;;;;;8358268;28;20029;-61
2021/03/12 00:08:58;;;;;;;0.35;0.20;;;5.10;99.90;;;;;;8358228;28;20116;-61
2021/03/12 00:12:59;;;;;;;0.65;0.10;;;5.20;99.90;;;;;;8358681;28;20059;-61
2021/03/12 00:16:59;;;;;;;0.50;0.30;;;5.10;99.90;;;;;;8359362;28;20044;-61
2021/03/12 00:21:02;;;;;;;0.10;0.10;;;5.20;99.90;;;;;;8359328;28;20647;-61
2021/03/12 00:25:06;;;;;;;2.28;0.38;;;5.20;99.90;;;;;;8359314;28;20426;-61
2021/03/12 00:29:07;;;;;;;0.20;0.20;;;5.10;99.90;;;;;;8359054;28;20454;-61
2021/03/12 00:33:08;;;;;;;0.65;0.25;;;5.00;99.90;;;;;;8359177;28;20032;-61
2021/03/12 00:37:09;;;;;;;0.85;0.20;;;4.90;99.90;;;;;;8355858;28;20025;-61
2021/03/12 00:41:09;;;;;;;1.85;0.30;;;4.80;99.90;;;;;;8366763;28;20044;-61
2021/03/12 00:45:14;;;;;;;1.83;0.30;;;4.80;99.90;;;;;;8362286;28;20033;-61
2021/03/12 00:49:14;;;;;;;0.50;0.28;;;4.80;99.90;;;;;;8356218;28;20013;-61
2021/03/12 00:53:15;;;;;;;0.65;0.30;;;4.70;99.90;;;;;;8362552;28;20033;-61
2021/03/12 00:57:16;;;;;;;0.20;0.20;;;4.60;99.90;;;;;;8364012;28;20112;-61
2021/03/12 01:01:16;;;;;;;0.68;0.30;;;4.60;99.90;;;;;;8364762;28;20035;-61
2021/03/12 01:05:18;;;;;;;0.68;0.28;;;4.70;99.90;;;;;;8364602;28;20491;-62
2021/03/12 01:09:18;;;;;;;0.10;0.10;;;4.60;99.90;;;;;;8363085;28;20020;-61
2021/03/12 01:13:19;;;;;;;1.17;0.40;;;4.70;99.90;;;;;;8396397;28;20437;-61
2021/03/12 01:17:19;;;;;;;0.20;0.20;;;4.70;99.90;;;;;;8363239;28;20041;-61
2021/03/12 01:21:20;;;;;;;0.10;0.10;;;4.80;99.90;;;;;;8362538;28;20036;-61
2021/03/12 01:25:23;;;;;;;0.40;0.10;;;4.80;99.90;;;;;;8361622;28;20119;-61
2021/03/12 01:29:24;;;;;;;0.10;0.10;;;4.80;99.90;;;;;;8363809;28;20483;-61
2021/03/12 01:33:24;;;;;;;0.30;0.20;;;4.80;99.90;;;;;;8363726;28;20104;-61
2021/03/12 01:37:25;;;;;;;0.65;0.10;;;4.80;99.90;;;;;;8363619;28;20096;-61
2021/03/12 01:41:25;;;;;;;1.20;0.20;;;4.90;99.90;;;;;;8366132;28;20124;-61
2021/03/12 01:45:35;;;;;;;0.20;0.10;;;4.80;99.90;;;;;;8329513;28;20762;-61
2021/03/12 01:49:35;;;;;;;0.22;0.10;;;4.90;99.90;;;;;;8336262;28;20106;-61
2021/03/12 01:53:37;;;;;;;1.38;0.20;;;4.80;99.90;;;;;;8359871;28;20033;-61
2021/03/12 01:57:38;;;;;;;0.77;0.28;;;4.90;99.90;;;;;;8359489;28;20035;-61
2021/03/12 02:01:38;;;;;;;0.10;0.10;;;4.80;99.90;;;;;;8360745;28;20025;-61
2021/03/12 02:05:39;;;;;;;0.00;0.00;;;4.70;99.90;;;;;;8361533;28;20037;-61
2021/03/12 02:09:40;;;;;;;0.70;0.30;;;4.70;99.90;;;;;;8367172;28;20021;-61
2021/03/12 02:14:14;;;;;;;0.93;0.30;;;4.70;99.90;;;;;;8376171;28;20024;-61
2021/03/12 02:18:25;;;;;;;0.20;0.20;;;4.70;99.90;;;;;;8317365;28;20038;-61
2021/03/12 02:22:28;;;;;;;0.85;0.30;;;4.80;99.90;;;;;;8328733;28;20029;-61
2021/03/12 02:26:44;;;;;;;1.27;0.10;;;4.90;99.90;;;;;;8328940;28;20022;-61
2021/03/12 02:30:44;;;;;;;0.20;0.20;;;4.90;99.90;;;;;;8332863;28;20033;-61
2021/03/12 02:34:47;;;;;;;0.68;0.50;;;5.00;99.90;;;;;;8360078;28;20040;-61
2021/03/12 02:38:49;;;;;;;0.85;0.30;;;5.10;99.90;;;;;;8359151;28;20055;-61
2021/03/12 02:42:50;;;;;;;0.82;0.30;;;5.10;99.90;;;;;;8373789;28;20082;-61
2021/03/12 02:46:58;;;;;;;1.00;0.40;;;5.10;99.90;;;;;;8356615;28;20056;-61
2021/03/12 02:50:59;;;;;;;2.17;0.28;;;5.10;99.90;;;;;;8361391;28;20029;-61
2021/03/12 02:55:00;;;;;;;1.48;0.30;;;5.10;99.90;;;;;;8361326;28;20513;-61
2021/03/12 02:59:01;;;;;;;1.20;0.30;;;5.20;99.90;;;;;;8360607;28;20104;-61
2021/03/12 03:03:03;;;;;;;1.13;0.30;;;5.20;99.90;;;;;;8360785;28;20108;-61
2021/03/12 03:07:07;;;;;;;0.32;0.22;;;5.00;99.90;;;;;;8358144;28;20511;-61
2021/03/12 03:11:08;;;;;;;0.70;0.30;;;5.00;99.90;;;;;;8366150;28;20036;-61
2021/03/12 03:15:10;;;;;;;1.05;0.40;;;5.00;99.90;;;;;;8358801;28;20037;-61
2021/03/12 03:19:11;;;;;;;0.20;0.20;;;4.90;99.90;;;;;;8358867;28;20017;-61
2021/03/12 03:23:12;;;;;;;1.42;0.40;;;4.90;99.90;;;;;;8359205;28;20093;-62
2021/03/12 03:27:14;;;;;;;0.95;0.30;;;4.90;99.90;;;;;;8359424;28;20029;-61
2021/03/12 03:31:15;;;;;;;1.45;0.57;;;4.80;99.90;;;;;;8359987;28;20058;-61
2021/03/12 03:35:16;;;;;;;0.85;0.30;;;4.70;99.90;;;;;;8360415;28;20049;-61
2021/03/12 03:39:17;;;;;;;0.38;0.30;;;4.60;99.90;;;;;;8360048;28;20029;-61
2021/03/12 03:43:39;;;;;;;2.60;0.30;;;4.60;99.90;;;;;;8352891;22;20128;-69
2021/03/12 03:47:41;;;;;;;0.73;0.32;;;4.40;99.90;;;;;;8321185;28;20033;-69
2021/03/12 03:51:42;;;;;;;2.35;0.57;;;4.30;99.90;;;;;;8321873;28;20119;-69
2021/03/12 03:55:43;;;;;;;1.60;0.43;;;4.30;99.90;;;;;;8324786;28;20667;-68
2021/03/12 03:59:44;;;;;;;3.33;0.40;;;4.30;99.90;;;;;;8324041;28;20061;-69
2021/03/12 04:03:46;;;;;;;2.28;0.38;;;4.40;99.90;;;;;;8336823;28;20048;-69
2021/03/12 04:07:47;;;;;;;1.40;0.30;;;4.50;99.90;;;;;;8337930;28;20116;-69
2021/03/12 04:11:48;;;;;;;0.93;0.40;;;4.50;99.90;;;;;;8350237;28;20021;-69
2021/03/12 04:15:49;;;;;;;1.58;0.40;;;4.50;99.90;;;;;;8364837;28;20060;-69
2021/03/12 04:19:50;;;;;;;1.80;0.73;;;4.40;99.90;;;;;;8360639;28;20673;-69
2021/03/12 04:28:02;;;;;;;;;;;4.40;99.90;;;;;;8409548;22;20406;-69
2021/03/12 04:32:04;;;;;;;0.65;0.40;;;4.40;99.90;;;;;;8310076;28;19913;-69
2021/03/12 04:36:05;;;;;;;2.90;0.60;;;4.40;99.90;;;;;;8331213;28;20026;-69
2021/03/12 04:40:07;;;;;;;1.85;0.45;;;4.50;99.90;;;;;;8352266;22;20045;-62
2021/03/12 04:44:10;;;;;;;1.85;0.70;;;4.60;99.90;;;;;;8327404;28;20036;-62
2021/03/12 04:48:11;;;;;;;0.70;0.50;;;4.60;99.90;;;;;;8331222;28;20279;-62
2021/03/12 04:52:13;;;;;;;1.92;0.50;;;4.70;99.90;;;;;;8332065;28;20033;-62
2021/03/12 04:56:15;;;;;;;2.25;0.40;;;4.70;99.90;;;;;;8330513;28;20033;-62
2021/03/12 05:00:18;;;;;;;2.40;0.40;;;4.70;99.90;;;;;;8329420;28;20076;-62
2021/03/12 05:04:18;;;;;;;1.83;0.40;;;4.60;99.90;;;;;;8328542;28;20486;-62
2021/03/12 05:08:20;;;;;;;1.13;0.45;;;4.60;99.90;;;;;;8324903;28;20068;-62
2021/03/12 05:12:20;;;;;;;2.47;0.40;;;4.60;99.90;;;;;;8329936;28;20033;-62
2021/03/12 05:16:21;;;;;;;2.40;0.70;;;4.70;99.90;;;;;;8329287;28;20486;-62
2021/03/12 05:20:24;;;;;;;1.35;0.40;;;4.60;99.90;;;;;;8330248;28;20028;-62
2021/03/12 05:24:25;;;;;;;3.22;0.63;;;4.50;99.90;;;;;;8329742;28;20025;-62
2021/03/12 05:28:25;;;;;;;3.03;0.70;;;4.50;99.90;;;;;;8307452;28;20073;-62
2021/03/12 05:32:26;;;;;;;2.58;0.63;;;4.60;99.90;;;;;;8332663;28;20491;-62
2021/03/12 05:36:26;;;;;;;1.33;0.20;;;4.60;99.90;;;;;;8334835;28;20514;-62
2021/03/12 05:40:27;;;;;;;3.03;0.80;;;4.70;99.90;;;;;;8331271;28;20094;-62
2021/03/12 05:44:28;;;;;;;1.55;0.30;;;4.60;99.90;;;;;;8326758;28;20025;-61
2021/03/12 05:48:29;;;;;;;2.20;0.55;;;4.60;99.90;;;;;;8326283;28;20024;-62
2021/03/12 05:52:29;;;;;;;0.90;0.40;;;4.50;99.90;;;;;;8327300;28;20033;-62
2021/03/12 05:56:33;;;;;;;2.90;0.50;;;4.50;99.90;;;;;;8345824;28;20029;-62
2021/03/12 06:00:33;;;;;;;2.55;0.63;;;4.50;99.90;;;;;;8326598;28;20449;-62
2021/03/12 06:04:34;;;;;;;2.88;0.60;;;4.40;99.90;;;;;;8330379;28;20113;-62
2021/03/12 06:08:35;;;;;;;3.63;0.60;;;4.50;99.90;;;;;;8329762;28;20048;-62
2021/03/12 06:12:36;;;;;;;2.72;0.55;;;4.50;99.90;;;;;;8329288;28;20048;-62
2021/03/12 06:16:37;;;;;;;3.53;0.40;;;4.50;99.90;;;;;;8327944;28;20030;-61
2021/03/12 06:20:37;;;;;;;1.20;0.40;;;4.50;99.90;;;;;;8344379;28;20109;-62
2021/03/12 06:24:38;;;;;;;2.55;0.43;;;4.60;99.90;;;;;;8329113;28;20032;-62
2021/03/12 06:28:38;;;;;;;1.58;0.47;;;4.60;99.90;;;;;;8328057;28;20064;-62
2021/03/12 06:32:43;;;;;;;4.47;0.60;;;4.80;99.90;;;;;;8325621;28;20025;-62
2021/03/12 06:36:44;;;;;;;1.33;0.40;;;4.90;99.90;;;;;;8327782;28;20605;-62
2021/03/12 06:40:45;;;;;;;1.98;0.65;;;5.10;99.90;;;;;;8328079;28;20033;-62
2021/03/12 06:44:45;;;;;;;4.28;0.55;;;5.20;99.90;;;;;;8328074;28;20096;-62
2021/03/12 06:48:46;;;;;;;2.65;0.60;;;5.00;99.90;;;;;;8328365;28;20021;-62
2021/03/12 06:52:47;;;;;;;5.07;0.88;;;4.80;99.90;;;;;;8328412;28;20029;-62
2021/03/12 06:56:47;;;;;;;3.33;1.00;;;5.00;99.90;;;;;;8327334;28;20527;-62
2021/03/12 07:00:49;;;;;;;4.28;0.70;;;5.20;99.90;;;;;;8327878;28;20510;-62
2021/03/12 07:04:56;;;;;;;4.82;0.68;;;5.50;99.90;;;;;;8325674;28;20060;-62
2021/03/12 07:08:56;;;;;;;3.40;0.68;;;5.40;99.90;;;;;;8325611;28;20108;-62
2021/03/12 07:12:58;;;;;;;1.65;0.82;;;5.20;99.90;;;;;;8325953;28;20084;-62
2021/03/12 07:16:59;;;;;;;2.40;0.52;;;5.40;99.90;;;;;;8325858;28;20360;-62
2021/03/12 07:21:01;;;;;;;0.65;0.32;;;5.50;99.90;;;;;;8325688;28;20029;-62
2021/03/12 07:25:06;;;;;;;3.22;0.52;;;5.70;99.90;;;;;;8326437;28;20084;-62
2021/03/12 07:29:11;;;;;;;1.10;0.38;;;5.80;99.90;;;;;;8326572;28;20076;-62
2021/03/12 07:33:15;;;;;;;1.27;0.50;;;5.80;99.90;;;;;;8327080;28;20036;-62
2021/03/12 07:37:19;;;;;;;1.98;0.43;;;5.80;99.90;;;;;;8304951;28;20025;-62
2021/03/12 07:41:20;;;;;;;2.15;0.55;;;5.90;99.90;;;;;;8326686;28;20048;-62
2021/03/12 07:45:21;;;;;;;2.08;0.45;;;6.00;99.90;;;;;;8320226;28;20029;-62
2021/03/12 07:49:28;;;;;;;1.00;0.55;;;6.00;99.90;;;;;;8326873;28;20047;-62
2021/03/12 07:53:48;;;;;;;2.15;0.50;;;6.10;99.90;;;;;;8296713;28;20025;-62
2021/03/12 07:57:49;;;;;;;0.35;0.30;;;6.20;99.90;;;;;;8315966;28;20044;-63
2021/03/12 08:01:52;;;;;;;1.98;0.43;;;6.40;99.90;;;;;;8325235;28;20108;-62
2021/03/12 08:05:53;;;;;;;1.75;0.40;;;6.50;99.90;;;;;;8321359;28;20117;-62
2021/03/12 08:09:54;;;;;;;2.40;0.60;;;6.60;99.90;;;;;;8321497;28;20021;-61
2021/03/12 08:14:16;;;;;;;1.90;0.65;;;6.70;99.90;;;;;;8322989;28;20026;-62
2021/03/12 08:18:20;;;;;;;0.85;0.63;;;6.70;99.90;;;;;;8316045;28;20018;-62
2021/03/12 08:22:26;;;;;;;3.17;1.17;;;6.70;99.90;;;;;;8322479;28;20626;-62
2021/03/12 08:26:56;;;;;;;0.63;0.47;;;6.50;99.90;;;;;;8322924;28;20075;-63
2021/03/12 08:30:59;;;;;;;0.98;0.40;;;6.30;99.90;;;;;;8319439;28;20069;-61
2021/03/12 08:35:00;;;;;;;1.33;0.45;;;6.50;99.90;;;;;;8323122;28;20083;-63
2021/03/12 08:39:25;;;;;;;3.35;0.68;;;6.90;99.90;;;;;;8317590;28;20038;-61
2021/03/12 08:43:28;;;;;;;1.88;0.57;;;7.10;99.90;;;;;;8324726;28;20025;-63
2021/03/12 08:47:28;;;;;;;2.45;0.80;;;7.00;99.90;;;;;;8322981;28;20026;-64
2021/03/12 08:51:30;;;;;;;3.85;1.02;;;7.20;99.90;;;;;;8314791;28;20022;-63
2021/03/12 08:55:35;;;;;;;5.82;0.70;;;7.10;99.90;;;;;;8327469;28;20171;-63
2021/03/12 08:59:36;;;;;;;1.55;0.47;;;7.20;99.90;;;;;;8325966;28;20420;-63
2021/03/12 09:03:37;;;;;;;9.07;0.80;;;7.30;99.90;;;;;;8325426;28;20044;-63
2021/03/12 09:07:56;;;;;;;3.83;0.60;;;7.60;99.90;;;;;;8319329;28;20022;-63
2021/03/12 09:11:57;;;;;;;2.22;0.47;;;7.50;99.90;;;;;;8324212;28;20483;-64
2021/03/12 09:16:00;;;;;;;1.92;0.60;;;7.60;99.90;;;;;;8329217;28;20076;-64
2021/03/12 09:20:01;;;;;;;4.20;0.82;;;7.90;99.90;;;;;;8328455;28;20037;-63
2021/03/12 09:24:02;;;;;;;4.85;0.93;;;8.20;99.90;;;;;;8329302;28;20116;-63
2021/03/12 09:28:09;;;;;;;3.33;0.82;;;8.30;99.90;;;;;;8328148;28;20021;-63
2021/03/12 09:32:09;;;;;;;3.30;0.82;;;8.70;99.90;;;;;;8326518;28;20128;-63
2021/03/12 09:36:30;;;;;;;2.38;0.40;;;8.40;99.90;;;;;;8328980;28;20083;-62
2021/03/12 09:40:42;;;;;;;1.83;0.60;;;7.90;99.90;;;;;;8325267;28;20059;-63
2021/03/12 09:44:46;;;;;;;2.63;0.70;;;8.00;99.90;;;;;;8324399;28;20096;-63
2021/03/12 09:48:47;;;;;;;1.95;0.70;;;8.00;99.90;;;;;;8328463;28;20024;-63
2021/03/12 09:52:48;;;;;;;2.08;0.75;;;8.00;99.90;;;;;;8328021;28;20025;-63
2021/03/12 09:56:51;;;;;;;3.50;0.70;;;8.30;99.90;;;;;;8324033;28;20029;-63
2021/03/12 10:00:52;;;;;;;2.58;0.80;;;8.50;99.90;;;;;;8324331;28;20091;-63
2021/03/12 10:05:01;;;;;;;0.77;0.30;;;8.80;99.90;;;;;;8322323;28;20368;-63
2021/03/12 10:09:08;;;;;;;4.05;0.88;;;8.70;99.90;;;;;;8324682;28;20021;-62
2021/03/12 10:13:08;;;;;;;3.13;0.60;;;8.70;99.90;;;;;;8324864;28;20106;-63
2021/03/12 10:17:30;;;;;;;3.53;0.70;;;8.30;99.90;;;;;;8322912;28;20029;-63
2021/03/12 10:21:31;;;;;;;2.83;0.80;;;8.30;99.90;;;;;;8325102;28;20032;-63
2021/03/12 10:25:36;;;;;;;2.85;0.68;;;8.40;99.90;;;;;;8325757;28;20083;-63
2021/03/12 10:29:37;;;;;;;3.05;0.77;;;8.60;99.90;;;;;;8327309;28;20006;-63
2021/03/12 10:33:38;;;;;;;2.22;0.82;;;9.20;99.90;;;;;;8326710;28;20032;-63
2021/03/12 10:37:38;;;;;;;5.13;0.47;;;8.70;99.90;;;;;;8323385;28;20499;-63
2021/03/12 10:41:39;;;;;;;2.55;0.70;;;8.50;99.90;;;;;;8325763;28;20033;-63
2021/03/12 10:45:49;;;;;;;2.60;0.80;;;8.30;99.90;;;;;;8326263;28;20116;-63
2021/03/12 10:49:50;;;;;;;4.55;0.95;;;8.30;99.90;;;;;;8321718;28;20021;-63
2021/03/12 10:53:53;;;;;;;9.27;4.15;;;8.60;99.90;;;;;;8326377;28;20343;-63
2021/03/12 10:57:59;;;;;;;2.35;0.75;;;9.20;99.90;;;;;;8351310;22;20047;-67
2021/03/12 11:02:12;;;;;;;2.83;0.70;;;9.60;99.90;;;;;;8321902;28;20125;-68
2021/03/12 11:06:13;;;;;;;;;;;11.80;99.60;;;;;;8323660;28;20119;-68
2021/03/12 11:10:15;;;;;;;;;;;13.60;91.70;;;;;;8328288;28;19921;-68
2021/03/12 11:14:15;;;;;;;;;;;13.80;86.10;;;;;;8327939;28;19916;-69
2021/03/12 11:18:16;;;;;;;;;;;15.10;86.60;;;;;;8325614;28;20000;-67
2021/03/12 11:22:17;;;;;;;;;;;13.70;76.70;;;;;;8310950;28;19917;-68
2021/03/12 11:26:18;;;;;;;;;;;12.40;82.60;;;;;;8325809;28;19987;-67
2021/03/12 11:30:19;;;;;;;;;;;11.60;86.60;;;;;;8324360;28;19905;-67
2021/03/12 11:34:19;;;;;;;;;;;11.50;88.20;;;;;;8324827;28;19909;-68
2021/03/12 11:38:20;;;;;;;;;;;11.30;90.80;;;;;;8325554;28;20043;-67
2021/03/12 11:42:20;;;;;;;;;;;10.70;90.70;;;;;;8325651;28;19905;-68
2021/03/12 11:46:21;;;;;;;;;;;13.50;82.50;;;;;;8326123;28;19909;-68
2021/03/12 11:50:23;;;;;;;;;;;14.70;75.20;;;;;;8325275;28;19971;-68
2021/03/12 11:54:24;;;;;;;;;;;16.00;66.90;;;;;;8317224;28;19909;-67
2021/03/12 11:58:25;;;;;;;;;;;15.30;63.80;;;;;;8326668;28;20038;-68
2021/03/12 12:02:25;;;;;;;;;;;15.80;63.00;;;;;;8324420;28;20007;-68
2021/03/12 12:06:26;;;;;;;;;;;16.10;61.50;;;;;;8325597;28;19905;-67
2021/03/12 12:10:27;;;;;;;;;;;16.50;58.90;;;;;;8323667;28;19920;-68
2021/03/12 12:14:27;;;;;;;;;;;16.80;58.80;;;;;;8323344;28;20027;-70
2021/03/12 12:18:28;;;;;;;;;;;15.60;61.50;;;;;;8323254;28;19992;-70
2021/03/12 12:22:28;;;;;;;;;;;13.10;67.10;;;;;;8325270;28;19909;-71
2021/03/12 12:26:30;;;;;;;;;;;13.50;71.60;;;;;;8320118;28;19962;-70
2021/03/12 12:30:31;;;;;;;;;;;14.10;65.40;;;;;;8325198;28;20271;-70
2021/03/12 12:34:31;;;;;;;;;;;13.60;66.90;;;;;;8331345;28;19909;-70
2021/03/12 12:38:32;;;;;;;;;;;13.10;73.30;;;;;;8332043;28;19909;-70
2021/03/12 12:42:33;;;;;;;;;;;15.10;65.50;;;;;;8326323;28;19909;-70
2021/03/12 12:46:34;;;;;;;;;;;13.80;66.40;;;;;;8329757;28;19971;-70
2021/03/12 12:50:34;;;;;;;;;;;12.00;74.30;;;;;;8331004;28;19911;-70
2021/03/12 12:54:34;;;;;;;;;;;11.00;75.00;;;;;;8329652;28;19905;-69
2021/03/12 12:58:36;;;;;;;;;;;11.50;77.50;;;;;;8327941;28;19916;-69
2021/03/12 13:02:36;;;;;;;;;;;11.70;75.60;;;;;;8329834;28;19909;-70
2021/03/12 13:06:38;;;;;;;;;;;15.90;63.70;;;;;;8330487;28;19905;-70
2021/03/12 13:10:39;;;;;;;;;;;14.60;63.20;;;;;;8330453;28;19905;-70
2021/03/12 13:14:40;;;;;;;;;;;14.00;66.50;;;;;;8327565;28;19925;-70
2021/03/12 13:18:40;;;;;;;;;;;14.80;62.40;;;;;;8329441;28;19909;-70
2021/03/12 13:22:41;;;;;;;;;;;17.00;54.50;;;;;;8327747;28;19909;-70
2021/03/12 13:26:41;;;;;;;;;;;17.00;54.50;;;;;;8321339;28;19909;-70
2021/03/12 13:30:42;;;;;;;;;;;16.50;53.70;;;;;;8327724;28;19912;-71
2021/03/12 13:34:43;;;;;;;;;;;17.40;52.80;;;;;;8328492;28;19916;-70
2021/03/12 13:38:43;;;;;;;;;;;17.00;50.00;;;;;;8328973;28;20290;-71
2021/03/12 13:42:46;;;;;;;;;;;17.50;49.20;;;;;;8327816;28;19924;-70
2021/03/12 13:46:46;;;;;;;;;;;18.70;48.60;;;;;;8329290;28;19917;-71
2021/03/12 13:50:47;;;;;;;;;;;17.40;49.70;;;;;;8328998;28;20393;-71
2021/03/12 13:54:47;;;;;;;;;;;17.10;50.20;;;;;;8330966;28;19958;-70
2021/03/12 13:58:48;;;;;;;;;;;18.10;51.20;;;;;;8306995;28;20358;-70
2021/03/12 14:02:49;;;;;;;;;;;18.60;48.80;;;;;;8321779;28;20386;-71
2021/03/12 14:06:49;;;;;;;;;;;19.00;47.60;;;;;;8320818;28;19912;-71
2021/03/12 14:10:50;;;;;;;;;;;18.50;45.90;;;;;;8329926;28;19905;-71
2021/03/12 14:14:50;;;;;;;;;;;19.10;48.80;;;;;;8327326;28;20003;-71
2021/03/12 14:18:50;;;;;;;;;;;18.00;48.60;;;;;;8322746;28;19915;-71
2021/03/12 14:22:51;;;;;;;;;;;18.00;48.60;;;;;;8326054;28;19913;-70
2021/03/12 14:26:52;;;;;;;;;;;16.70;48.20;;;;;;8315820;28;20275;-70
2021/03/12 14:30:52;;;;;;;;;;;14.50;52.70;;;;;;8323174;28;19916;-70
2021/03/12 14:34:53;;;;;;;;;;;12.90;56.10;;;;;;8300165;28;20009;-70
2021/03/12 14:38:54;;;;;;;;;;;11.90;58.30;;;;;;8327759;28;19909;-70
2021/03/12 14:42:55;;;;;;;;;;;11.20;62.40;;;;;;8321879;28;20044;-70
2021/03/12 14:46:56;;;;;;;;;;;11.70;62.20;;;;;;8327017;28;20051;-70
2021/03/12 14:50:56;;;;;;;;;;;15.30;55.00;;;;;;8328265;28;19909;-71
2021/03/12 14:54:57;;;;;;;;;;;15.90;52.30;;;;;;8320168;28;19963;-71
2021/03/12 14:58:57;;;;;;;;;;;15.00;55.50;;;;;;8321809;28;19924;-71
2021/03/12 15:02:57;;;;;;;;;;;14.70;55.20;;;;;;8323840;28;19994;-70
2021/03/12 15:06:58;;;;;;;;;;;13.30;57.60;;;;;;8323628;28;19967;-70
2021/03/12 15:10:59;;;;;;;;;;;12.50;62.80;;;;;;8324340;28;19905;-70
2021/03/12 15:14:59;;;;;;;;;;;14.10;56.50;;;;;;8324098;28;19913;-70
2021/03/12 15:18:59;;;;;;;;;;;15.10;54.80;;;;;;8323380;28;19909;-70
2021/03/12 15:23:00;;;;;;;;;;;15.30;55.20;;;;;;8323914;28;19952;-68
2021/03/12 15:27:00;;;;;;;;;;;15.50;54.60;;;;;;8324184;28;19940;-68
2021/03/12 15:31:01;;;;;;;;;;;15.00;55.00;;;;;;8326070;28;19905;-68
2021/03/12 15:35:02;;;;;;;;;;;15.70;54.70;;;;;;8323584;28;19916;-68
2021/03/12 15:39:03;;;;;;;;;;;14.80;53.10;;;;;;8325716;28;19905;-68
2021/03/12 15:43:03;;;;;;;;;;;11.80;61.90;;;;;;8325280;28;19926;-69
2021/03/12 15:47:04;;;;;;;;;;;11.00;66.30;;;;;;8323338;28;19917;-69
2021/03/12 15:51:04;;;;;;;;;;;13.30;62.10;;;;;;8325479;28;19905;-68
2021/03/12 15:55:05;;;;;;;;;;;13.90;58.00;;;;;;8326191;28;19928;-68
2021/03/12 15:59:06;;;;;;;;;;;13.50;58.60;;;;;;8324995;28;19982;-68
2021/03/12 16:03:06;;;;;;;;;;;13.30;57.80;;;;;;8327420;28;19928;-68
2021/03/12 16:07:07;;;;;;;;;;;13.10;56.80;;;;;;8339011;28;19917;-68
2021/03/12 16:11:07;;;;;;;;;;;11.70;58.80;;;;;;8333460;28;20019;-68
2021/03/12 16:15:08;;;;;;;;;;;10.40;61.10;;;;;;8329254;28;19920;-68
2021/03/12 16:19:09;;;;;;;;;;;10.10;62.40;;;;;;8334389;28;19913;-68
2021/03/12 16:23:10;;;;;;;;;;;10.80;62.20;;;;;;8347515;28;20117;-68
2021/03/12 16:27:11;;;;;;;;;;;11.70;58.70;;;;;;8335116;28;20375;-68
2021/03/12 16:31:11;;;;;;;;;;;12.40;58.20;;;;;;8333274;28;20462;-69
2021/03/12 16:35:12;;;;;;;;;;;12.60;56.60;;;;;;8332436;28;19928;-68
2021/03/12 16:39:12;;;;;;;;;;;11.90;58.10;;;;;;8330993;28;20363;-68
2021/03/12 16:43:13;;;;;;;;;;;11.00;59.80;;;;;;8334352;28;19913;-68
2021/03/12 16:47:13;;;;;;;;;;;10.30;61.60;;;;;;8331954;28;19963;-68
2021/03/12 16:51:14;;;;;;;;;;;9.80;64.30;;;;;;8334235;28;20003;-68
2021/03/12 16:55:15;;;;;;;;;;;9.40;66.70;;;;;;8335602;28;19916;-68
2021/03/12 16:59:16;;;;;;;;;;;9.10;66.90;;;;;;8339403;28;19943;-68
2021/03/12 17:03:16;;;;;;;;;;;8.90;69.10;;;;;;8334992;28;19916;-67
2021/03/12 17:07:17;;;;;;;;;;;8.60;69.00;;;;;;8335276;28;19912;-67
2021/03/12 17:11:18;;;;;;;;;;;8.60;70.50;;;;;;8331634;28;19948;-67
2021/03/12 17:15:18;;;;;;;;;;;8.40;71.70;;;;;;8332133;28;20004;-67
2021/03/12 17:19:20;;;;;;;;;;;8.30;72.60;;;;;;8329465;28;20342;-68
2021/03/12 17:23:20;;;;;;;;;;;8.20;74.20;;;;;;8329741;28;19916;-67
2021/03/12 17:27:21;;;;;;;;;;;8.10;75.20;;;;;;8335365;28;19910;-68
2021/03/12 17:31:21;;;;;;;;;;;8.00;74.70;;;;;;8341049;28;20294;-67
2021/03/12 17:35:22;;;;;;;;;;;7.90;76.00;;;;;;8329352;28;19905;-68
2021/03/12 17:39:22;;;;;;;;;;;7.70;77.30;;;;;;8329021;28;19905;-68
2021/03/12 17:43:23;;;;;;;;;;;7.60;78.30;;;;;;8330612;28;19913;-68
2021/03/12 17:47:23;;;;;;;;;;;7.50;79.80;;;;;;8328295;28;19979;-68
2021/03/12 17:51:24;;;;;;;;;;;7.50;80.80;;;;;;8330130;28;19905;-68
2021/03/12 17:55:25;;;;;;;;;;;7.30;82.20;;;;;;8329609;28;19915;-68
2021/03/12 17:59:25;;;;;;;;;;;7.40;82.50;;;;;;8326708;28;19912;-69
2021/03/12 18:03:27;;;;;;;;;;;7.30;84.30;;;;;;8325991;28;20015;-68
2021/03/12 18:07:28;;;;;;;;;;;7.10;85.50;;;;;;8321377;28;19987;-68
2021/03/12 18:11:30;;;;;;;;;;;6.90;86.40;;;;;;8325807;28;20726;-68
2021/03/12 18:15:31;;;;;;;;;;;7.00;86.70;;;;;;8321191;28;20323;-67
2021/03/12 18:19:31;;;;;;;;;;;7.10;86.20;;;;;;8319745;28;19917;-67
2021/03/12 18:23:32;;;;;;;;;;;7.00;88.20;;;;;;8324554;28;19917;-67
2021/03/12 18:27:33;;;;;;;;;;;7.00;90.00;;;;;;8328693;28;19912;-68
2021/03/12 18:31:33;;;;;;;;;;;6.90;91.00;;;;;;8329608;28;19908;-69
2021/03/12 18:35:34;;;;;;;;;;;6.70;91.90;;;;;;8326691;28;19905;-69
2021/03/12 18:39:34;;;;;;;;;;;6.50;93.20;;;;;;8325334;28;20413;-67
2021/03/12 18:43:35;;;;;;;;;;;6.50;93.90;;;;;;8325416;28;19913;-68
2021/03/12 18:47:36;;;;;;;;;;;6.50;94.60;;;;;;8315033;28;19982;-67
2021/03/12 18:51:36;;;;;;;;;;;6.50;95.30;;;;;;8362054;22;19952;-63
2021/03/12 18:55:37;;;;;;;;;;;6.50;95.00;;;;;;8359457;28;20301;-63
2021/03/12 18:59:37;;;;;;;;;;;6.60;95.30;;;;;;8338109;28;19911;-63
2021/03/12 19:03:37;;;;;;;;;;;6.60;95.90;;;;;;8343295;28;20363;-63
2021/03/12 19:07:38;;;;;;;;;;;6.50;95.90;;;;;;8339257;28;20752;-62
2021/03/12 19:11:38;;;;;;;;;;;6.60;95.60;;;;;;8338796;28;20398;-63
2021/03/12 19:15:41;;;;;;;;;;;6.70;95.50;;;;;;8342784;28;20410;-61
2021/03/12 19:19:42;;;;;;;;;;;6.60;96.10;;;;;;8339854;28;19999;-62
2021/03/12 19:23:42;;;;;;;;;;;6.60;95.90;;;;;;8322416;28;20427;-62
2021/03/12 19:27:43;;;;;;;2.87;0.97;;;6.70;95.30;;;;;;8350866;28;20732;-62
2021/03/12 19:31:44;;;;;;;1.45;0.57;;;6.80;95.10;;;;;;8323377;28;20048;-63
2021/03/12 19:35:45;;;;;;;3.17;0.70;;;6.80;95.20;;;;;;8339159;28;20029;-63
2021/03/12 19:39:46;;;;;;;1.67;0.73;;;6.80;94.90;;;;;;8312957;28;20503;-63
2021/03/12 19:43:46;;;;;;;5.05;0.65;;;6.90;94.40;;;;;;8342272;28;20095;-63
2021/03/12 19:47:47;;;;;;;3.60;1.83;;;6.90;94.60;;;;;;8334410;28;20025;-63
2021/03/12 19:51:48;;;;;;;0.93;0.52;;;6.80;94.60;;;;;;8333989;28;20041;-63
2021/03/12 19:55:49;;;;;;;1.58;0.60;;;6.80;94.70;;;;;;8335194;28;20159;-63
2021/03/12 19:59:50;;;;;;;1.17;0.45;;;6.80;95.10;;;;;;8335582;28;20495;-63
2021/03/12 20:03:50;;;;;;;3.13;0.47;;;6.70;95.30;;;;;;8318702;28;20080;-63
2021/03/12 20:07:51;;;;;;;1.88;0.90;;;6.80;95.70;;;;;;8335211;28;20032;-63
2021/03/12 20:11:52;;;;;;;2.42;0.80;;;6.70;95.90;;;;;;8330869;28;20079;-63
2021/03/12 20:15:52;;;;;;;4.93;0.90;;;6.60;96.30;;;;;;8334706;28;20503;-63
2021/03/12 20:19:53;;;;;;;3.15;0.98;;;6.70;96.60;;;;;;8322697;28;20099;-62
2021/03/12 20:23:53;;;;;;;4.35;0.82;;;6.70;97.00;;;;;;8335097;28;20044;-62
2021/03/12 20:27:54;;;;;;;2.30;0.90;;;6.60;97.60;;;;;;8334662;28;20576;-62
2021/03/12 20:31:56;;;;;;;4.13;2.35;;;6.50;97.60;;;;;;8334386;28;20029;-62
2021/03/12 20:35:57;;;;;;;5.22;0.90;;;6.60;97.70;;;;;;8317932;28;20110;-62
2021/03/12 20:39:58;;;;;;;2.03;0.68;;;6.60;97.80;;;;;;8333155;28;20076;-62
2021/03/12 20:43:58;;;;;;;1.40;0.50;;;6.70;97.70;;;;;;8337255;28;20029;-62
2021/03/12 20:47:59;;;;;;;1.30;0.80;;;6.80;97.80;;;;;;8337216;28;20033;-62
2021/03/12 20:52:00;;;;;;;3.90;1.15;;;6.80;98.10;;;;;;8326990;28;20036;-63
2021/03/12 20:56:02;;;;;;;4.65;0.77;;;6.70;98.40;;;;;;8322446;28;20063;-61
2021/03/12 21:00:06;;;;;;;9.23;4.60;;;6.80;98.40;;;;;;8341779;28;20498;-62
2021/03/12 21:04:07;;;;;;;2.03;0.65;;;6.90;98.00;;;;;;8324855;28;20523;-62
2021/03/12 21:08:07;;;;;;;1.50;0.55;;;6.80;98.30;;;;;;8342946;28;20032;-65
2021/03/12 21:12:08;;;;;;;2.05;0.70;;;6.80;98.40;;;;;;8324321;28;20025;-62
2021/03/12 21:16:09;;;;;;;8.07;1.13;;;6.70;99.00;;;;;;8328196;28;20402;-62
2021/03/12 21:20:10;;;;;;;3.83;0.75;;;6.70;98.80;;;;;;8342369;28;20028;-62
2021/03/12 21:24:11;;;;;;;2.08;0.90;;;6.70;99.00;;;;;;8342647;28;20028;-62
2021/03/12 21:28:12;;;;;;;1.15;0.45;;;6.70;99.20;;;;;;8333121;28;20028;-62
2021/03/12 21:32:12;;;;;;;0.98;0.50;;;6.70;99.40;;;;;;8342681;28;20032;-62
2021/03/12 21:36:13;;;;;;;2.22;0.82;;;6.60;99.50;;;;;;8342765;28;20686;-62
2021/03/12 21:40:14;;;;;;;4.68;1.00;;;6.60;99.90;;;;;;8326756;28;20037;-63
2021/03/12 21:44:15;;;;;;;1.63;0.40;;;6.50;99.90;;;;;;8333129;28;20066;-62
2021/03/12 21:48:16;;;;;;;5.18;0.55;;;6.60;99.90;;;;;;8339213;28;20100;-62
2021/03/12 21:52:16;;;;;;;2.75;0.50;;;6.60;99.90;;;;;;8322235;28;20033;-62
2021/03/12 21:56:17;;;;;;;5.20;1.90;;;6.60;99.90;;;;;;8337277;28;20153;-62
2021/03/12 22:00:19;;;;;;;2.63;1.00;;;6.70;99.90;;;;;;8319747;28;20326;-61
2021/03/12 22:04:20;;;;;;;3.50;0.65;;;6.70;99.90;;;;;;8311897;28;20029;-63
2021/03/12 22:08:20;;;;;;;3.78;0.80;;;6.60;99.90;;;;;;8332481;28;20711;-62